TAF Text Data
IDs:
Format:
Raw Decoded Include METAR

Data at: 1759 UTC 06 Jul 2020

Region: TOP
KATL 061725Z 0618/0724 11008KT 6SM -SHRA FEW030 BKN040
  TEMPO 0619/0623 3SM TSRA BKN025CB
  FM070200 10008KT P6SM VCSH SCT015 OVC025
  FM070400 09007KT 6SM BR VCSH BKN008
  FM070600 09006KT 4SM BR VCSH OVC003
  FM071400 07006KT 6SM -SHRA SCT006 BKN008
  FM071700 08005KT P6SM -SHRA BKN025 BKN050
  PROB30 0718/0722 3SM TSRA BKN020CB


KBOS 061729Z 0618/0724 09007KT P6SM SCT012
  FM070100 13004KT P6SM SCT150
  FM071100 15003KT P6SM BKN035
  FM071500 12006KT P6SM BKN045


KBWI 061720Z 0618/0724 19007KT P6SM VCTS SCT060CB
  TEMPO 0621/0623 VRB15G30KT 2SM TSRA SCT060CB
  FM062300 16006KT P6SM VCTS BKN060CB
  FM070100 16006KT P6SM SCT060
  FM071300 VRB03KT P6SM BKN025
  FM071500 17004KT P6SM SCT045


KCLE 061720Z 0618/0724 02008KT P6SM SKC
  FM070100 VRB04KT P6SM SKC
  FM071500 36008KT P6SM FEW250
  FM071800 36008KT P6SM VCTS SCT040CB
  PROB30 0718/0721 5SM -TSRA BKN035CB
  FM072100 01007KT P6SM VCSH SCT110


KCLT 061736Z 0618/0724 12008KT P6SM -SHRA BKN040
  TEMPO 0618/0622 4SM TSRA BR OVC035CB
  FM070300 15004KT P6SM VCSH OVC040
  FM070600 12003KT P6SM VCSH OVC025
  FM071300 13004KT P6SM -SHRA OVC015
  PROB30 0717/0723 3SM TSRA BR OVC010CB


KCVG 061734Z 0618/0724 15004KT P6SM BKN150
  FM062000 19004KT P6SM VCTS SCT050CB SCT150
  FM070000 VRB02KT P6SM SCT120
  TEMPO 0710/0712 5SM BR
  FM071600 24004KT P6SM SCT050
  FM071800 25004KT P6SM VCTS BKN050CB


KDCA 061720Z 0618/0724 19008KT P6SM SCT060
  FM061900 19007KT P6SM VCTS SCT060CB
  TEMPO 0622/0624 VRB15G30KT 2SM TSRA SCT060CB
  FM070000 18006KT P6SM VCTS SCT060CB
  FM070100 15006KT P6SM SCT060
  FM070500 18005KT P6SM SCT060


KDEN 061740Z 0618/0724 VRB06KT P6SM FEW100
  FM062000 11009KT P6SM SCT100
  FM062200 14013G20KT P6SM VCTS SCT100CB BKN150
  TEMPO 0622/0702 VRB15G30KT BKN100CB
  FM070200 17013G20KT P6SM SCT100 BKN150
  FM070600 20013KT P6SM FEW150
  FM071500 22009KT P6SM FEW150
  FM072100 17013G20KT P6SM SCT100 BKN150


KDFW 061729Z 0618/0724 14006KT P6SM VCTS SCT015 SCT040CB BKN160
  TEMPO 0621/0624 VRB15G25KT 4SM -TSRA BKN040CB
  FM070200 14007KT P6SM BKN090
  FM071000 13007KT P6SM VCTS BKN012CB
  FM071200 18009KT 6SM -SHRA VCTS BKN010CB
  FM071700 20009KT P6SM BKN035


KDTW 061742Z 0618/0724 17008KT P6SM SCT060
  TEMPO 0619/0622 6SM SHRA BKN050
  FM070200 VRB02KT P6SM SCT090
  FM070900 VRB02KT 5SM BR FEW070
  FM071100 24004KT P6SM FEW070


KEWR 061731Z 0618/0724 15009KT P6SM -SHRA VCTS BKN040CB
  TEMPO 0619/0622 5SM TSRA BKN030CB
  FM070000 12006KT P6SM FEW025 BKN080
  FM070600 11005KT P6SM OVC020
  FM071500 12007KT P6SM BKN030
  FM071700 12007KT P6SM BKN050
  PROB30 0718/0724 6SM -SHRA


KFLL 061720Z 0618/0724 14010KT P6SM VCTS SCT025CB SCT100
  TEMPO 0618/0621 VRB15G25KT 3SM TSRA BKN025CB
  FM070000 VRB04KT P6SM VCSH SCT040 BKN100 BKN250
  FM070600 VRB03KT P6SM FEW050 BKN250
  FM071600 12008KT P6SM VCTS SCT035CB SCT100


KIAD 061720Z 0618/0724 19007KT P6SM FEW060
  FM061900 19007KT P6SM VCTS SCT060CB
  FM070100 18005KT P6SM SCT060
  FM070300 15005KT P6SM SCT060


KIAH 061732Z 0618/0724 21009KT P6SM SCT035 BKN150
  FM062200 19007KT P6SM VCTS SCT035CB BKN150
  FM070000 VRB03KT P6SM SCT025 BKN100
  FM071100 18006KT P6SM BKN020
  FM071600 VRB03KT P6SM VCTS BKN035CB


KJFK 061731Z 0618/0724 16008KT P6SM FEW050 SCT250
  FM061900 15011KT P6SM -SHRA VCTS BKN040CB
  TEMPO 0620/0623 4SM TSRA BKN030CB
  FM070000 12007KT P6SM FEW020 BKN080
  FM070500 13005KT P6SM SCT015 OVC020
  FM071400 14008KT P6SM BKN030
  FM071600 14009KT P6SM BKN050
  PROB30 0719/0724 6SM -SHRA


KLAS 061721Z 0618/0724 09008KT P6SM SKC
  FM062000 15010G17KT P6SM SKC
  FM070000 20014G23KT P6SM SKC
  FM070400 22010KT P6SM SKC
  FM071400 19015G24KT P6SM SKC


KLAX 061723Z 0618/0724 26007KT 6SM HZ FEW010
  FM062000 26012KT P6SM SKC
  FM070500 26006KT P6SM SKC
  FM071200 VRB03KT 3SM BR BKN006
  FM071700 25006KT 6SM HZ FEW008
  FM071900 26012KT P6SM SKC


KLGA 061731Z 0618/0724 06007KT P6SM FEW050 SCT250
  FM061900 15010KT P6SM -SHRA VCTS BKN040CB
  TEMPO 0620/0623 4SM TSRA BKN030CB
  FM070000 11007KT P6SM FEW020 BKN080
  FM070500 12005KT P6SM SCT015 OVC020
  FM071400 11009KT P6SM BKN030
  FM071600 12010KT P6SM BKN050
  PROB30 0719/0724 6SM -SHRA


KMCO 061743Z 0618/0724 16008KT P6SM VCTS SCT035CB BKN060
  TEMPO 0618/0620 VRB15G25KT 2SM TSRA BKN025CB BKN050
  FM062200 20006KT P6SM VCSH SCT035 BKN120 BKN250
  FM070400 VRB04KT P6SM FEW120 SCT250
  FM071500 21005KT P6SM FEW030 SCT250
  FM071700 21007KT P6SM VCTS SCT035CB BKN060
  TEMPO 0718/0720 VRB15G25KT 2SM TSRA BKN025CB BKN050
  FM072300 22007KT P6SM VCSH SCT035 SCT120 BKN250


KMDW 061722Z 0618/0724 21004KT P6SM VCSH SCT060 SCT300
  FM061900 10008KT P6SM SCT070 SCT300
  FM070200 23003KT P6SM FEW070 SCT300
  FM071700 25006KT P6SM BKN045
  PROB30 0718/0722 VRB15G30KT 4SM -TSRA BKN030CB
  FM072200 10007KT P6SM SCT040


KMEM 061720Z 0618/0724 10004KT P6SM FEW035 BKN150
  FM062000 07005KT P6SM VCTS SCT030CB BKN150
  FM070200 08005KT P6SM SCT040 SCT150
  FM071200 14005KT P6SM SCT040 SCT100
  FM072100 20006KT P6SM VCTS SCT030CB BKN100


KMIA 061720Z 0618/0724 13010KT P6SM VCTS BKN035CB BKN100
  TEMPO 0618/0621 VRB15G25KT 3SM TSRA BKN025CB
  FM070000 VRB04KT P6SM VCSH SCT040 BKN100 BKN250
  FM070600 VRB02KT P6SM FEW050 BKN250
  FM071600 12008KT P6SM VCTS SCT035CB SCT100


KMSP 061738Z 0618/0724 VRB04KT P6SM FEW080 BKN150
  FM062100 23008KT P6SM SCT040 BKN070
  TEMPO 0621/0701 3SM TSRA BR BKN040CB
  FM070100 VRB03KT 6SM -RA BR SCT030 OVC080
  TEMPO 0701/0705 4SM TSRA BR BKN030CB
  FM070500 00000KT 6SM -RA BR OVC040
  FM071000 VRB03KT P6SM SCT040 BKN080


KORD 061722Z 0618/0724 20006KT P6SM VCSH SCT060 SCT300
  FM062000 10008KT P6SM SCT070 SCT300
  FM070200 23003KT P6SM FEW070 SCT300
  FM071700 25006KT P6SM BKN045
  PROB30 0718/0722 VRB15G30KT 4SM -TSRA BKN030CB
  FM072200 10007KT P6SM SCT040


KPDX 061743Z 0618/0718 31004KT P6SM SCT025 BKN035 OVC050
  FM062000 31006KT P6SM SCT030 BKN045
  FM062300 32009KT P6SM SCT050
  FM070300 32007KT P6SM BKN050
  FM070700 30004KT P6SM OVC050
  FM071200 21006KT P6SM -SHRA SCT025 OVC040


KPHL 061720Z 0618/0724 23008KT 6SM SHRA VCTS SCT020CB OVC080
  TEMPO 0618/0620 3SM +TSRAGS BKN025CB
  FM062300 16007KT P6SM BKN050 BKN150
  FM070700 VRB02KT P6SM OVC025
  FM071500 18008KT P6SM SCT250


KPHX 061720Z 0618/0724 27007KT P6SM FEW150
  FM062100 28011G18KT P6SM FEW150
  FM070100 28008KT P6SM FEW150
  FM071100 12007KT P6SM FEW120 SCT150
  FM071800 26008KT P6SM FEW100 FEW150


KPIT 061737Z 0618/0724 27004KT P6SM SCT250
  FM070000 00000KT P6SM SKC
  FM072000 20003KT P6SM SCT100
  PROB30 0720/0724 P6SM -TSRA BKN080CB


KSAN 061732Z 0618/0724 25009KT 6SM HZ FEW007
  FM070200 VRB05KT P6SM SCT010
  FM070500 18006KT P6SM OVC008
  FM071100 18003KT P6SM OVC006
  FM071700 19005KT P6SM SCT010
  FM071900 21009KT P6SM SCT010


KSEA 061727Z 0618/0724 22008KT P6SM SCT060 SCT200
  FM071000 19008KT P6SM VCSH OVC025
  FM072100 22008KT P6SM VCSH BKN040


KSFO 061735Z 0618/0724 27017KT P6SM SKC
  FM062100 28024G33KT P6SM SKC
  FM070400 28017G24KT P6SM SKC
  FM070900 28010KT P6SM SCT015
  FM072100 28017G24KT P6SM SKC


KSLC 061740Z 0618/0724 30009KT P6SM SKC
  FM070300 17010KT P6SM FEW150
  FM071600 18012G20KT P6SM FEW150
  FM071800 32012G20KT P6SM FEW150


KSTL 061720Z 0618/0724 12005KT P6SM FEW060 FEW250
  FM070000 00000KT P6SM FEW250


KTPA 061720Z 0618/0724 20010KT P6SM VCTS SCT035CB SCT250
  FM062100 24011KT P6SM VCSH SCT040 BKN250
  FM070100 22005KT P6SM SCT040 SCT250
  FM071200 22005KT P6SM VCSH SCT020 SCT250